sensor_id;sensor_type;location;lat;lon;timestamp;P1;durP1;ratioP1;P2;durP2;ratioP2
17330;SDS011;8783;52.448;4.638;2023-11-19T00:02:20;15.00;;;4.30;;
17330;SDS011;8783;52.448;4.638;2023-11-19T00:04:46;11.88;;;3.67;;
17330;SDS011;8783;52.448;4.638;2023-11-19T00:07:12;14.73;;;3.80;;
17330;SDS011;8783;52.448;4.638;2023-11-19T00:09:39;9.82;;;3.58;;
17330;SDS011;8783;52.448;4.638;2023-11-19T00:12:05;9.88;;;3.33;;
17330;SDS011;8783;52.448;4.638;2023-11-19T00:14:31;13.63;;;3.75;;
17330;SDS011;8783;52.448;4.638;2023-11-19T00:16:58;14.18;;;3.58;;
17330;SDS011;8783;52.448;4.638;2023-11-19T00:19:24;11.75;;;3.20;;
17330;SDS011;8783;52.448;4.638;2023-11-19T00:21:49;11.10;;;3.38;;
17330;SDS011;8783;52.448;4.638;2023-11-19T00:24:15;13.57;;;3.58;;
17330;SDS011;8783;52.448;4.638;2023-11-19T00:26:42;10.15;;;3.33;;
17330;SDS011;8783;52.448;4.638;2023-11-19T00:29:08;11.23;;;3.40;;
17330;SDS011;8783;52.448;4.638;2023-11-19T00:31:33;11.68;;;3.38;;
17330;SDS011;8783;52.448;4.638;2023-11-19T00:33:59;14.95;;;3.50;;
17330;SDS011;8783;52.448;4.638;2023-11-19T00:36:26;16.77;;;3.88;;
17330;SDS011;8783;52.448;4.638;2023-11-19T00:38:53;13.40;;;3.05;;
17330;SDS011;8783;52.448;4.638;2023-11-19T00:41:18;12.13;;;3.45;;
17330;SDS011;8783;52.448;4.638;2023-11-19T00:43:44;9.77;;;3.30;;
17330;SDS011;8783;52.448;4.638;2023-11-19T00:46:10;11.57;;;2.92;;
17330;SDS011;8783;52.448;4.638;2023-11-19T00:48:41;12.82;;;3.58;;
17330;SDS011;8783;52.448;4.638;2023-11-19T00:51:07;13.05;;;3.08;;
17330;SDS011;8783;52.448;4.638;2023-11-19T00:53:32;11.43;;;3.28;;
17330;SDS011;8783;52.448;4.638;2023-11-19T00:56:01;11.20;;;3.22;;
17330;SDS011;8783;52.448;4.638;2023-11-19T00:58:27;9.95;;;3.00;;
17330;SDS011;8783;52.448;4.638;2023-11-19T01:00:52;10.93;;;2.90;;
17330;SDS011;8783;52.448;4.638;2023-11-19T01:03:18;10.60;;;3.42;;
17330;SDS011;8783;52.448;4.638;2023-11-19T01:05:43;12.30;;;3.28;;
17330;SDS011;8783;52.448;4.638;2023-11-19T01:08:11;7.97;;;2.95;;
17330;SDS011;8783;52.448;4.638;2023-11-19T01:10:37;13.93;;;3.70;;
17330;SDS011;8783;52.448;4.638;2023-11-19T01:13:03;11.07;;;3.30;;
17330;SDS011;8783;52.448;4.638;2023-11-19T01:15:30;11.68;;;3.25;;
17330;SDS011;8783;52.448;4.638;2023-11-19T01:17:56;13.07;;;3.60;;
17330;SDS011;8783;52.448;4.638;2023-11-19T01:20:22;12.15;;;3.15;;
17330;SDS011;8783;52.448;4.638;2023-11-19T01:22:48;11.40;;;3.42;;
17330;SDS011;8783;52.448;4.638;2023-11-19T01:25:14;14.02;;;3.78;;
17330;SDS011;8783;52.448;4.638;2023-11-19T01:27:39;12.63;;;3.30;;
17330;SDS011;8783;52.448;4.638;2023-11-19T01:30:05;12.35;;;3.17;;
17330;SDS011;8783;52.448;4.638;2023-11-19T01:32:34;13.82;;;3.28;;
17330;SDS011;8783;52.448;4.638;2023-11-19T01:35:01;12.55;;;3.10;;
17330;SDS011;8783;52.448;4.638;2023-11-19T01:37:28;12.23;;;3.00;;
17330;SDS011;8783;52.448;4.638;2023-11-19T01:39:54;10.27;;;2.83;;
17330;SDS011;8783;52.448;4.638;2023-11-19T01:42:19;9.25;;;2.97;;
17330;SDS011;8783;52.448;4.638;2023-11-19T01:44:54;12.05;;;3.58;;
17330;SDS011;8783;52.448;4.638;2023-11-19T01:47:24;11.23;;;3.58;;
17330;SDS011;8783;52.448;4.638;2023-11-19T01:49:51;10.32;;;2.90;;
17330;SDS011;8783;52.448;4.638;2023-11-19T01:52:17;7.43;;;2.30;;
17330;SDS011;8783;52.448;4.638;2023-11-19T01:54:44;15.15;;;3.90;;
17330;SDS011;8783;52.448;4.638;2023-11-19T01:57:10;11.63;;;3.38;;
17330;SDS011;8783;52.448;4.638;2023-11-19T01:59:36;15.07;;;3.50;;
17330;SDS011;8783;52.448;4.638;2023-11-19T02:02:02;10.55;;;2.65;;
17330;SDS011;8783;52.448;4.638;2023-11-19T02:04:28;12.00;;;3.42;;
17330;SDS011;8783;52.448;4.638;2023-11-19T02:06:54;11.77;;;3.08;;
17330;SDS011;8783;52.448;4.638;2023-11-19T02:09:23;12.10;;;3.17;;
17330;SDS011;8783;52.448;4.638;2023-11-19T02:11:48;13.02;;;3.40;;
17330;SDS011;8783;52.448;4.638;2023-11-19T02:14:16;14.30;;;3.78;;
17330;SDS011;8783;52.448;4.638;2023-11-19T02:16:42;13.15;;;3.25;;
17330;SDS011;8783;52.448;4.638;2023-11-19T02:19:08;13.05;;;3.50;;
17330;SDS011;8783;52.448;4.638;2023-11-19T02:21:36;12.55;;;3.08;;
17330;SDS011;8783;52.448;4.638;2023-11-19T02:24:05;10.68;;;2.85;;
17330;SDS011;8783;52.448;4.638;2023-11-19T02:26:36;10.75;;;3.38;;
17330;SDS011;8783;52.448;4.638;2023-11-19T02:29:09;10.60;;;3.15;;
17330;SDS011;8783;52.448;4.638;2023-11-19T02:31:36;15.43;;;3.70;;
17330;SDS011;8783;52.448;4.638;2023-11-19T02:34:02;13.43;;;3.28;;
17330;SDS011;8783;52.448;4.638;2023-11-19T02:36:28;14.13;;;3.33;;
17330;SDS011;8783;52.448;4.638;2023-11-19T02:38:53;10.00;;;3.13;;
17330;SDS011;8783;52.448;4.638;2023-11-19T02:41:20;12.57;;;3.35;;
17330;SDS011;8783;52.448;4.638;2023-11-19T02:43:45;12.63;;;3.40;;
17330;SDS011;8783;52.448;4.638;2023-11-19T02:46:13;12.50;;;3.30;;
17330;SDS011;8783;52.448;4.638;2023-11-19T02:48:39;14.10;;;4.03;;
17330;SDS011;8783;52.448;4.638;2023-11-19T02:51:05;9.93;;;2.85;;
17330;SDS011;8783;52.448;4.638;2023-11-19T02:53:34;13.02;;;2.90;;
17330;SDS011;8783;52.448;4.638;2023-11-19T02:56:02;12.90;;;3.65;;
17330;SDS011;8783;52.448;4.638;2023-11-19T02:58:36;21.13;;;4.43;;
17330;SDS011;8783;52.448;4.638;2023-11-19T03:01:02;12.65;;;3.92;;
17330;SDS011;8783;52.448;4.638;2023-11-19T03:03:37;13.95;;;4.18;;
17330;SDS011;8783;52.448;4.638;2023-11-19T03:06:05;11.85;;;3.50;;
17330;SDS011;8783;52.448;4.638;2023-11-19T03:08:32;14.93;;;3.55;;
17330;SDS011;8783;52.448;4.638;2023-11-19T03:11:00;13.10;;;3.70;;
17330;SDS011;8783;52.448;4.638;2023-11-19T03:13:25;14.95;;;3.25;;
17330;SDS011;8783;52.448;4.638;2023-11-19T03:15:51;12.32;;;3.60;;
17330;SDS011;8783;52.448;4.638;2023-11-19T03:18:18;17.83;;;3.80;;
17330;SDS011;8783;52.448;4.638;2023-11-19T03:20:45;14.40;;;3.83;;
17330;SDS011;8783;52.448;4.638;2023-11-19T03:23:11;11.93;;;3.67;;
17330;SDS011;8783;52.448;4.638;2023-11-19T03:25:37;11.32;;;2.90;;
17330;SDS011;8783;52.448;4.638;2023-11-19T03:28:03;17.05;;;3.65;;
17330;SDS011;8783;52.448;4.638;2023-11-19T03:30:29;14.77;;;3.90;;
17330;SDS011;8783;52.448;4.638;2023-11-19T03:32:56;12.55;;;3.13;;
17330;SDS011;8783;52.448;4.638;2023-11-19T03:35:23;13.55;;;3.45;;
17330;SDS011;8783;52.448;4.638;2023-11-19T03:37:49;12.15;;;3.80;;
17330;SDS011;8783;52.448;4.638;2023-11-19T03:40:16;12.55;;;3.33;;
17330;SDS011;8783;52.448;4.638;2023-11-19T03:42:42;15.85;;;3.95;;
17330;SDS011;8783;52.448;4.638;2023-11-19T03:45:08;17.35;;;3.60;;
17330;SDS011;8783;52.448;4.638;2023-11-19T03:47:34;14.65;;;3.50;;
17330;SDS011;8783;52.448;4.638;2023-11-19T03:50:00;14.82;;;3.28;;
17330;SDS011;8783;52.448;4.638;2023-11-19T03:52:27;15.30;;;3.83;;
17330;SDS011;8783;52.448;4.638;2023-11-19T03:54:54;15.90;;;3.60;;
17330;SDS011;8783;52.448;4.638;2023-11-19T03:57:20;15.80;;;4.05;;
17330;SDS011;8783;52.448;4.638;2023-11-19T03:59:46;14.40;;;3.90;;
17330;SDS011;8783;52.448;4.638;2023-11-19T04:02:12;13.95;;;4.32;;
17330;SDS011;8783;52.448;4.638;2023-11-19T04:04:37;16.25;;;3.67;;
17330;SDS011;8783;52.448;4.638;2023-11-19T04:07:04;13.52;;;3.60;;
17330;SDS011;8783;52.448;4.638;2023-11-19T04:09:30;14.18;;;3.47;;
17330;SDS011;8783;52.448;4.638;2023-11-19T04:12:05;14.93;;;4.10;;
17330;SDS011;8783;52.448;4.638;2023-11-19T04:14:31;13.88;;;3.50;;
17330;SDS011;8783;52.448;4.638;2023-11-19T04:16:57;15.50;;;3.92;;
17330;SDS011;8783;52.448;4.638;2023-11-19T04:19:22;15.45;;;4.03;;
17330;SDS011;8783;52.448;4.638;2023-11-19T04:21:49;16.77;;;4.05;;
17330;SDS011;8783;52.448;4.638;2023-11-19T04:24:15;13.35;;;3.60;;
17330;SDS011;8783;52.448;4.638;2023-11-19T04:26:44;18.30;;;4.50;;
17330;SDS011;8783;52.448;4.638;2023-11-19T04:29:13;14.15;;;3.60;;
17330;SDS011;8783;52.448;4.638;2023-11-19T04:31:40;12.00;;;3.30;;
17330;SDS011;8783;52.448;4.638;2023-11-19T04:34:06;14.88;;;3.85;;
17330;SDS011;8783;52.448;4.638;2023-11-19T04:36:32;14.20;;;3.75;;
17330;SDS011;8783;52.448;4.638;2023-11-19T04:39:01;14.60;;;3.92;;
17330;SDS011;8783;52.448;4.638;2023-11-19T04:41:27;14.80;;;3.50;;
17330;SDS011;8783;52.448;4.638;2023-11-19T04:43:53;15.90;;;3.60;;
17330;SDS011;8783;52.448;4.638;2023-11-19T04:46:20;12.77;;;3.40;;
17330;SDS011;8783;52.448;4.638;2023-11-19T04:48:46;15.68;;;3.88;;
17330;SDS011;8783;52.448;4.638;2023-11-19T04:51:11;18.05;;;4.20;;
17330;SDS011;8783;52.448;4.638;2023-11-19T04:53:37;13.75;;;3.50;;
17330;SDS011;8783;52.448;4.638;2023-11-19T04:56:09;15.90;;;3.83;;
17330;SDS011;8783;52.448;4.638;2023-11-19T04:58:35;15.77;;;3.70;;
17330;SDS011;8783;52.448;4.638;2023-11-19T05:01:02;16.27;;;3.67;;
17330;SDS011;8783;52.448;4.638;2023-11-19T05:03:30;17.08;;;3.53;;
17330;SDS011;8783;52.448;4.638;2023-11-19T05:05:56;19.40;;;3.85;;
17330;SDS011;8783;52.448;4.638;2023-11-19T05:08:25;16.17;;;3.90;;
17330;SDS011;8783;52.448;4.638;2023-11-19T05:10:51;17.75;;;3.83;;
17330;SDS011;8783;52.448;4.638;2023-11-19T05:13:16;15.95;;;3.92;;
17330;SDS011;8783;52.448;4.638;2023-11-19T05:15:42;14.65;;;3.50;;
17330;SDS011;8783;52.448;4.638;2023-11-19T05:18:08;16.15;;;3.97;;
17330;SDS011;8783;52.448;4.638;2023-11-19T05:20:34;15.18;;;3.78;;
17330;SDS011;8783;52.448;4.638;2023-11-19T05:22:59;18.17;;;4.03;;
17330;SDS011;8783;52.448;4.638;2023-11-19T05:25:25;16.05;;;3.72;;
17330;SDS011;8783;52.448;4.638;2023-11-19T05:27:54;16.65;;;3.78;;
17330;SDS011;8783;52.448;4.638;2023-11-19T05:30:20;12.38;;;3.38;;
17330;SDS011;8783;52.448;4.638;2023-11-19T05:32:45;12.57;;;4.15;;
17330;SDS011;8783;52.448;4.638;2023-11-19T05:35:11;20.60;;;4.60;;
17330;SDS011;8783;52.448;4.638;2023-11-19T05:37:37;14.77;;;3.95;;
17330;SDS011;8783;52.448;4.638;2023-11-19T05:40:03;17.35;;;3.97;;
17330;SDS011;8783;52.448;4.638;2023-11-19T05:42:31;16.95;;;4.10;;
17330;SDS011;8783;52.448;4.638;2023-11-19T05:44:57;12.93;;;3.17;;
17330;SDS011;8783;52.448;4.638;2023-11-19T05:47:23;12.32;;;3.70;;
17330;SDS011;8783;52.448;4.638;2023-11-19T05:49:48;15.02;;;3.40;;
17330;SDS011;8783;52.448;4.638;2023-11-19T05:52:14;14.10;;;3.33;;
17330;SDS011;8783;52.448;4.638;2023-11-19T05:54:39;12.57;;;3.35;;
17330;SDS011;8783;52.448;4.638;2023-11-19T05:57:05;13.38;;;3.80;;
17330;SDS011;8783;52.448;4.638;2023-11-19T05:59:34;14.32;;;3.97;;
17330;SDS011;8783;52.448;4.638;2023-11-19T06:02:01;13.05;;;3.65;;
17330;SDS011;8783;52.448;4.638;2023-11-19T06:04:27;15.07;;;4.03;;
17330;SDS011;8783;52.448;4.638;2023-11-19T06:06:53;16.85;;;4.05;;
17330;SDS011;8783;52.448;4.638;2023-11-19T06:09:20;14.85;;;3.90;;
17330;SDS011;8783;52.448;4.638;2023-11-19T06:11:46;14.73;;;3.65;;
17330;SDS011;8783;52.448;4.638;2023-11-19T06:14:12;16.48;;;4.10;;
17330;SDS011;8783;52.448;4.638;2023-11-19T06:16:37;17.27;;;3.70;;
17330;SDS011;8783;52.448;4.638;2023-11-19T06:19:05;14.70;;;4.03;;
17330;SDS011;8783;52.448;4.638;2023-11-19T06:21:30;15.73;;;4.22;;
17330;SDS011;8783;52.448;4.638;2023-11-19T06:23:56;18.17;;;4.93;;
17330;SDS011;8783;52.448;4.638;2023-11-19T06:26:21;14.23;;;3.65;;
17330;SDS011;8783;52.448;4.638;2023-11-19T06:28:48;16.42;;;3.75;;
17330;SDS011;8783;52.448;4.638;2023-11-19T06:31:14;17.98;;;4.53;;
17330;SDS011;8783;52.448;4.638;2023-11-19T06:33:41;17.50;;;4.45;;
17330;SDS011;8783;52.448;4.638;2023-11-19T06:36:07;11.63;;;3.33;;
17330;SDS011;8783;52.448;4.638;2023-11-19T06:38:34;15.73;;;3.92;;
17330;SDS011;8783;52.448;4.638;2023-11-19T06:40:59;17.00;;;3.53;;
17330;SDS011;8783;52.448;4.638;2023-11-19T06:43:26;15.13;;;3.63;;
17330;SDS011;8783;52.448;4.638;2023-11-19T06:45:52;15.50;;;4.20;;
17330;SDS011;8783;52.448;4.638;2023-11-19T06:48:18;14.93;;;3.33;;
17330;SDS011;8783;52.448;4.638;2023-11-19T06:50:44;15.73;;;4.20;;
17330;SDS011;8783;52.448;4.638;2023-11-19T06:53:09;16.17;;;3.95;;
17330;SDS011;8783;52.448;4.638;2023-11-19T06:55:35;17.00;;;4.03;;
17330;SDS011;8783;52.448;4.638;2023-11-19T06:58:01;14.68;;;3.75;;
17330;SDS011;8783;52.448;4.638;2023-11-19T07:00:28;14.65;;;4.07;;
17330;SDS011;8783;52.448;4.638;2023-11-19T07:02:54;13.10;;;3.88;;
17330;SDS011;8783;52.448;4.638;2023-11-19T07:05:20;16.70;;;4.07;;
17330;SDS011;8783;52.448;4.638;2023-11-19T07:07:46;17.13;;;4.18;;
17330;SDS011;8783;52.448;4.638;2023-11-19T07:10:11;16.13;;;3.72;;
17330;SDS011;8783;52.448;4.638;2023-11-19T07:12:37;21.80;;;4.50;;
17330;SDS011;8783;52.448;4.638;2023-11-19T07:15:03;21.00;;;4.70;;
17330;SDS011;8783;52.448;4.638;2023-11-19T07:17:30;14.93;;;3.78;;
17330;SDS011;8783;52.448;4.638;2023-11-19T07:19:56;18.20;;;4.03;;
17330;SDS011;8783;52.448;4.638;2023-11-19T07:22:24;13.50;;;3.35;;
17330;SDS011;8783;52.448;4.638;2023-11-19T07:24:50;17.83;;;4.05;;
17330;SDS011;8783;52.448;4.638;2023-11-19T07:27:16;18.45;;;3.95;;
17330;SDS011;8783;52.448;4.638;2023-11-19T07:29:43;17.55;;;3.70;;
17330;SDS011;8783;52.448;4.638;2023-11-19T07:32:09;18.98;;;4.03;;
17330;SDS011;8783;52.448;4.638;2023-11-19T07:34:35;19.05;;;4.50;;
17330;SDS011;8783;52.448;4.638;2023-11-19T07:37:01;18.63;;;4.50;;
17330;SDS011;8783;52.448;4.638;2023-11-19T07:39:35;16.98;;;3.33;;
17330;SDS011;8783;52.448;4.638;2023-11-19T07:42:03;13.38;;;3.55;;
17330;SDS011;8783;52.448;4.638;2023-11-19T07:44:28;14.13;;;3.67;;
17330;SDS011;8783;52.448;4.638;2023-11-19T07:46:54;12.68;;;3.25;;
17330;SDS011;8783;52.448;4.638;2023-11-19T07:49:20;15.13;;;4.30;;
17330;SDS011;8783;52.448;4.638;2023-11-19T07:51:45;14.20;;;3.53;;
17330;SDS011;8783;52.448;4.638;2023-11-19T07:54:11;15.95;;;3.88;;
17330;SDS011;8783;52.448;4.638;2023-11-19T07:56:36;15.38;;;3.55;;
17330;SDS011;8783;52.448;4.638;2023-11-19T07:59:02;14.25;;;3.47;;
17330;SDS011;8783;52.448;4.638;2023-11-19T08:01:28;13.32;;;3.72;;
17330;SDS011;8783;52.448;4.638;2023-11-19T08:03:54;26.85;;;5.53;;
17330;SDS011;8783;52.448;4.638;2023-11-19T08:06:19;23.75;;;4.63;;
17330;SDS011;8783;52.448;4.638;2023-11-19T08:08:46;23.42;;;4.72;;
17330;SDS011;8783;52.448;4.638;2023-11-19T08:11:12;30.80;;;5.90;;
17330;SDS011;8783;52.448;4.638;2023-11-19T08:13:38;28.27;;;5.80;;
17330;SDS011;8783;52.448;4.638;2023-11-19T08:16:04;28.75;;;5.35;;
17330;SDS011;8783;52.448;4.638;2023-11-19T08:18:30;28.15;;;5.18;;
17330;SDS011;8783;52.448;4.638;2023-11-19T08:20:56;24.38;;;5.43;;
17330;SDS011;8783;52.448;4.638;2023-11-19T08:23:23;25.10;;;5.38;;
17330;SDS011;8783;52.448;4.638;2023-11-19T08:25:50;34.50;;;6.50;;
17330;SDS011;8783;52.448;4.638;2023-11-19T08:28:17;30.17;;;6.78;;
17330;SDS011;8783;52.448;4.638;2023-11-19T08:30:42;30.52;;;7.03;;
17330;SDS011;8783;52.448;4.638;2023-11-19T08:33:09;35.97;;;6.30;;
17330;SDS011;8783;52.448;4.638;2023-11-19T08:35:35;28.45;;;6.30;;
17330;SDS011;8783;52.448;4.638;2023-11-19T08:38:00;29.27;;;6.68;;
17330;SDS011;8783;52.448;4.638;2023-11-19T08:40:26;26.27;;;5.88;;
17330;SDS011;8783;52.448;4.638;2023-11-19T08:42:52;25.23;;;6.10;;
17330;SDS011;8783;52.448;4.638;2023-11-19T08:45:18;26.30;;;5.97;;
17330;SDS011;8783;52.448;4.638;2023-11-19T08:47:43;21.65;;;5.97;;
17330;SDS011;8783;52.448;4.638;2023-11-19T08:50:10;26.90;;;6.07;;
17330;SDS011;8783;52.448;4.638;2023-11-19T08:52:36;32.38;;;6.57;;
17330;SDS011;8783;52.448;4.638;2023-11-19T08:55:02;23.80;;;6.22;;
17330;SDS011;8783;52.448;4.638;2023-11-19T08:57:30;29.92;;;6.05;;
17330;SDS011;8783;52.448;4.638;2023-11-19T08:59:56;27.25;;;5.90;;
17330;SDS011;8783;52.448;4.638;2023-11-19T09:02:21;30.85;;;7.00;;
17330;SDS011;8783;52.448;4.638;2023-11-19T09:04:47;24.92;;;6.35;;
17330;SDS011;8783;52.448;4.638;2023-11-19T09:07:12;26.60;;;6.40;;
17330;SDS011;8783;52.448;4.638;2023-11-19T09:09:38;26.98;;;5.40;;
17330;SDS011;8783;52.448;4.638;2023-11-19T09:12:04;20.85;;;5.65;;
17330;SDS011;8783;52.448;4.638;2023-11-19T09:14:30;24.17;;;5.45;;
17330;SDS011;8783;52.448;4.638;2023-11-19T09:16:56;22.88;;;5.10;;
17330;SDS011;8783;52.448;4.638;2023-11-19T09:19:22;31.05;;;6.00;;
17330;SDS011;8783;52.448;4.638;2023-11-19T09:21:47;24.95;;;5.88;;
17330;SDS011;8783;52.448;4.638;2023-11-19T09:24:14;23.52;;;6.00;;
17330;SDS011;8783;52.448;4.638;2023-11-19T09:26:40;23.85;;;4.78;;
17330;SDS011;8783;52.448;4.638;2023-11-19T09:29:10;24.23;;;4.90;;
17330;SDS011;8783;52.448;4.638;2023-11-19T09:31:37;20.75;;;4.95;;
17330;SDS011;8783;52.448;4.638;2023-11-19T09:34:03;23.02;;;5.53;;
17330;SDS011;8783;52.448;4.638;2023-11-19T09:36:29;25.05;;;5.22;;
17330;SDS011;8783;52.448;4.638;2023-11-19T09:38:55;19.00;;;4.40;;
17330;SDS011;8783;52.448;4.638;2023-11-19T09:41:20;22.50;;;4.57;;
17330;SDS011;8783;52.448;4.638;2023-11-19T09:43:46;21.75;;;5.22;;
17330;SDS011;8783;52.448;4.638;2023-11-19T09:46:15;23.00;;;4.82;;
17330;SDS011;8783;52.448;4.638;2023-11-19T09:48:41;23.65;;;5.20;;
17330;SDS011;8783;52.448;4.638;2023-11-19T09:51:09;29.15;;;5.30;;
17330;SDS011;8783;52.448;4.638;2023-11-19T09:53:36;21.10;;;4.72;;
17330;SDS011;8783;52.448;4.638;2023-11-19T09:56:02;25.90;;;5.68;;
17330;SDS011;8783;52.448;4.638;2023-11-19T09:58:29;27.35;;;5.53;;
17330;SDS011;8783;52.448;4.638;2023-11-19T10:00:56;21.27;;;5.30;;
17330;SDS011;8783;52.448;4.638;2023-11-19T10:03:24;25.38;;;5.07;;
17330;SDS011;8783;52.448;4.638;2023-11-19T10:05:51;26.60;;;5.20;;
17330;SDS011;8783;52.448;4.638;2023-11-19T10:08:18;25.85;;;5.15;;
17330;SDS011;8783;52.448;4.638;2023-11-19T10:10:43;26.83;;;5.38;;
17330;SDS011;8783;52.448;4.638;2023-11-19T10:13:09;22.90;;;4.50;;
17330;SDS011;8783;52.448;4.638;2023-11-19T10:15:36;21.33;;;5.45;;
17330;SDS011;8783;52.448;4.638;2023-11-19T10:18:02;25.02;;;5.82;;
17330;SDS011;8783;52.448;4.638;2023-11-19T10:20:37;22.27;;;5.05;;
17330;SDS011;8783;52.448;4.638;2023-11-19T10:23:05;23.25;;;6.07;;
17330;SDS011;8783;52.448;4.638;2023-11-19T10:25:31;31.45;;;6.30;;
17330;SDS011;8783;52.448;4.638;2023-11-19T10:27:58;27.63;;;6.70;;
17330;SDS011;8783;52.448;4.638;2023-11-19T10:30:25;31.58;;;6.00;;
17330;SDS011;8783;52.448;4.638;2023-11-19T10:33:04;23.65;;;5.57;;
17330;SDS011;8783;52.448;4.638;2023-11-19T10:35:31;29.52;;;6.72;;
17330;SDS011;8783;52.448;4.638;2023-11-19T10:37:59;27.63;;;5.70;;
17330;SDS011;8783;52.448;4.638;2023-11-19T10:40:37;23.00;;;5.43;;
17330;SDS011;8783;52.448;4.638;2023-11-19T10:43:04;28.20;;;5.95;;
17330;SDS011;8783;52.448;4.638;2023-11-19T10:45:32;21.83;;;5.35;;
17330;SDS011;8783;52.448;4.638;2023-11-19T10:47:58;23.58;;;5.05;;
17330;SDS011;8783;52.448;4.638;2023-11-19T10:50:25;33.45;;;6.25;;
17330;SDS011;8783;52.448;4.638;2023-11-19T10:52:55;32.03;;;6.03;;
17330;SDS011;8783;52.448;4.638;2023-11-19T10:55:26;36.28;;;6.45;;
17330;SDS011;8783;52.448;4.638;2023-11-19T10:57:53;25.92;;;5.40;;
17330;SDS011;8783;52.448;4.638;2023-11-19T11:00:44;25.02;;;4.95;;
17330;SDS011;8783;52.448;4.638;2023-11-19T11:05:49;28.13;;;5.43;;
17330;SDS011;8783;52.448;4.638;2023-11-19T11:08:16;34.33;;;5.72;;
17330;SDS011;8783;52.448;4.638;2023-11-19T11:10:43;29.55;;;5.32;;
17330;SDS011;8783;52.448;4.638;2023-11-19T11:13:13;20.25;;;4.93;;
17330;SDS011;8783;52.448;4.638;2023-11-19T11:15:39;26.50;;;5.55;;
17330;SDS011;8783;52.448;4.638;2023-11-19T11:18:08;27.83;;;5.50;;
17330;SDS011;8783;52.448;4.638;2023-11-19T11:20:34;20.98;;;4.90;;
17330;SDS011;8783;52.448;4.638;2023-11-19T11:25:58;27.23;;;5.68;;
17330;SDS011;8783;52.448;4.638;2023-11-19T11:34:21;20.88;;;5.13;;
17330;SDS011;8783;52.448;4.638;2023-11-19T11:37:07;24.42;;;4.88;;
17330;SDS011;8783;52.448;4.638;2023-11-19T11:39:43;22.23;;;4.75;;
17330;SDS011;8783;52.448;4.638;2023-11-19T11:44:58;26.10;;;5.50;;
17330;SDS011;8783;52.448;4.638;2023-11-19T11:50:08;28.75;;;5.47;;
17330;SDS011;8783;52.448;4.638;2023-11-19T11:52:47;20.70;;;4.88;;
17330;SDS011;8783;52.448;4.638;2023-11-19T11:55:29;22.48;;;5.13;;
17330;SDS011;8783;52.448;4.638;2023-11-19T12:00:46;23.65;;;5.22;;
17330;SDS011;8783;52.448;4.638;2023-11-19T12:03:13;31.30;;;5.70;;
17330;SDS011;8783;52.448;4.638;2023-11-19T12:05:43;28.27;;;5.57;;
17330;SDS011;8783;52.448;4.638;2023-11-19T12:08:10;25.52;;;5.18;;
17330;SDS011;8783;52.448;4.638;2023-11-19T12:13:16;27.60;;;5.68;;
17330;SDS011;8783;52.448;4.638;2023-11-19T12:18:28;22.88;;;4.75;;
17330;SDS011;8783;52.448;4.638;2023-11-19T12:20:55;23.58;;;5.03;;
17330;SDS011;8783;52.448;4.638;2023-11-19T12:23:22;25.77;;;5.18;;
17330;SDS011;8783;52.448;4.638;2023-11-19T12:25:48;27.92;;;5.40;;
17330;SDS011;8783;52.448;4.638;2023-11-19T12:28:14;21.20;;;4.53;;
17330;SDS011;8783;52.448;4.638;2023-11-19T12:30:42;23.30;;;5.32;;
17330;SDS011;8783;52.448;4.638;2023-11-19T12:33:09;21.17;;;5.05;;
17330;SDS011;8783;52.448;4.638;2023-11-19T12:38:08;22.92;;;4.95;;
17330;SDS011;8783;52.448;4.638;2023-11-19T12:40:43;20.15;;;4.53;;
17330;SDS011;8783;52.448;4.638;2023-11-19T12:43:08;25.23;;;5.55;;
17330;SDS011;8783;52.448;4.638;2023-11-19T12:45:35;22.38;;;4.95;;
17330;SDS011;8783;52.448;4.638;2023-11-19T12:48:04;31.73;;;5.80;;
17330;SDS011;8783;52.448;4.638;2023-11-19T12:50:49;29.13;;;5.45;;
17330;SDS011;8783;52.448;4.638;2023-11-19T12:53:20;30.42;;;6.45;;
17330;SDS011;8783;52.448;4.638;2023-11-19T12:55:46;24.27;;;4.85;;
17330;SDS011;8783;52.448;4.638;2023-11-19T13:01:03;29.05;;;5.10;;
17330;SDS011;8783;52.448;4.638;2023-11-19T13:03:34;22.70;;;4.85;;
17330;SDS011;8783;52.448;4.638;2023-11-19T13:06:05;24.05;;;4.78;;
17330;SDS011;8783;52.448;4.638;2023-11-19T13:08:51;22.85;;;4.75;;
17330;SDS011;8783;52.448;4.638;2023-11-19T13:11:32;21.52;;;5.03;;
17330;SDS011;8783;52.448;4.638;2023-11-19T13:14:05;28.53;;;5.80;;
17330;SDS011;8783;52.448;4.638;2023-11-19T13:16:33;20.95;;;4.55;;
17330;SDS011;8783;52.448;4.638;2023-11-19T13:19:01;23.65;;;5.30;;
17330;SDS011;8783;52.448;4.638;2023-11-19T13:21:27;23.58;;;4.93;;
17330;SDS011;8783;52.448;4.638;2023-11-19T13:23:57;19.55;;;4.47;;
17330;SDS011;8783;52.448;4.638;2023-11-19T13:26:23;17.65;;;4.50;;
17330;SDS011;8783;52.448;4.638;2023-11-19T13:28:48;26.50;;;5.60;;
17330;SDS011;8783;52.448;4.638;2023-11-19T13:31:14;23.08;;;5.18;;
17330;SDS011;8783;52.448;4.638;2023-11-19T13:33:40;19.08;;;4.78;;
17330;SDS011;8783;52.448;4.638;2023-11-19T13:36:06;20.40;;;5.03;;
17330;SDS011;8783;52.448;4.638;2023-11-19T13:38:34;18.67;;;5.15;;
17330;SDS011;8783;52.448;4.638;2023-11-19T13:41:01;18.77;;;4.97;;
17330;SDS011;8783;52.448;4.638;2023-11-19T13:43:27;23.08;;;4.63;;
17330;SDS011;8783;52.448;4.638;2023-11-19T13:45:53;20.77;;;4.88;;
17330;SDS011;8783;52.448;4.638;2023-11-19T13:48:20;20.88;;;4.68;;
17330;SDS011;8783;52.448;4.638;2023-11-19T13:50:45;21.08;;;4.68;;
17330;SDS011;8783;52.448;4.638;2023-11-19T13:53:11;17.58;;;4.13;;
17330;SDS011;8783;52.448;4.638;2023-11-19T13:55:37;21.73;;;4.18;;
17330;SDS011;8783;52.448;4.638;2023-11-19T13:58:02;29.73;;;5.97;;
17330;SDS011;8783;52.448;4.638;2023-11-19T14:00:28;20.15;;;4.40;;
17330;SDS011;8783;52.448;4.638;2023-11-19T14:02:53;27.55;;;4.30;;
17330;SDS011;8783;52.448;4.638;2023-11-19T14:05:19;19.45;;;4.10;;
17330;SDS011;8783;52.448;4.638;2023-11-19T14:07:45;21.45;;;4.75;;
17330;SDS011;8783;52.448;4.638;2023-11-19T14:10:13;23.15;;;5.70;;
17330;SDS011;8783;52.448;4.638;2023-11-19T14:12:40;19.67;;;3.88;;
17330;SDS011;8783;52.448;4.638;2023-11-19T14:15:07;21.92;;;4.43;;
17330;SDS011;8783;52.448;4.638;2023-11-19T14:17:42;20.75;;;4.00;;
17330;SDS011;8783;52.448;4.638;2023-11-19T14:20:08;18.60;;;4.38;;
17330;SDS011;8783;52.448;4.638;2023-11-19T14:22:38;19.15;;;4.40;;
17330;SDS011;8783;52.448;4.638;2023-11-19T14:25:08;19.80;;;4.57;;
17330;SDS011;8783;52.448;4.638;2023-11-19T14:27:37;19.02;;;3.90;;
17330;SDS011;8783;52.448;4.638;2023-11-19T14:30:04;20.55;;;4.82;;
17330;SDS011;8783;52.448;4.638;2023-11-19T14:32:31;20.48;;;4.20;;
17330;SDS011;8783;52.448;4.638;2023-11-19T14:34:57;18.70;;;4.25;;
17330;SDS011;8783;52.448;4.638;2023-11-19T14:37:22;22.75;;;5.03;;
17330;SDS011;8783;52.448;4.638;2023-11-19T14:39:48;23.23;;;4.38;;
17330;SDS011;8783;52.448;4.638;2023-11-19T14:42:15;22.52;;;4.63;;
17330;SDS011;8783;52.448;4.638;2023-11-19T14:44:41;16.75;;;3.92;;
17330;SDS011;8783;52.448;4.638;2023-11-19T14:47:07;21.00;;;4.18;;
17330;SDS011;8783;52.448;4.638;2023-11-19T14:49:34;21.38;;;4.65;;
17330;SDS011;8783;52.448;4.638;2023-11-19T14:52:00;21.92;;;5.00;;
17330;SDS011;8783;52.448;4.638;2023-11-19T14:54:26;24.67;;;5.45;;
17330;SDS011;8783;52.448;4.638;2023-11-19T14:56:51;18.08;;;4.47;;
17330;SDS011;8783;52.448;4.638;2023-11-19T14:59:17;22.60;;;5.30;;
17330;SDS011;8783;52.448;4.638;2023-11-19T15:01:44;16.40;;;4.20;;
17330;SDS011;8783;52.448;4.638;2023-11-19T15:04:10;25.50;;;5.20;;
17330;SDS011;8783;52.448;4.638;2023-11-19T15:06:36;25.10;;;5.00;;
17330;SDS011;8783;52.448;4.638;2023-11-19T15:09:02;21.83;;;4.93;;
17330;SDS011;8783;52.448;4.638;2023-11-19T15:11:28;18.00;;;4.75;;
17330;SDS011;8783;52.448;4.638;2023-11-19T15:13:54;26.48;;;5.85;;
17330;SDS011;8783;52.448;4.638;2023-11-19T15:16:20;29.98;;;7.55;;
17330;SDS011;8783;52.448;4.638;2023-11-19T15:18:51;27.33;;;7.45;;